Time;durP1;ratioP1;P1;durP2;ratioP2;P2;SDS_P1;SDS_P2;PMS_P1;PMS_P2;Temp;Humidity;BMP_temperature;BMP_pressure;BME280_temperature;BME280_humidity;BME280_pressure;Samples;Min_cycle;Max_cycle;Signal;HPM_P1;HPM_P2
2023/02/14 00:01:34;;;;;;;;;;;;;;;27.35;34.93;95875.75;5026881;28;7610;-61
2023/02/14 00:04:02;;;;;;;;;;;;;;;27.32;35.44;95877.50;5052127;28;7291;-61
2023/02/14 00:06:34;;;;;;;;;;;;;;;27.34;34.88;95874.25;5048598;28;7057;-61
2023/02/14 00:09:19;;;;;;;;;;;;;;;27.34;34.80;95880.53;5048486;28;7259;-61
2023/02/14 00:12:03;;;;;;;;;;;;;;;27.34;34.90;95869.47;5035058;28;7122;-61
2023/02/14 00:17:42;;;;;;;;;;;;;;;27.32;35.48;95865.66;5036243;28;7260;-61
2023/02/14 00:20:29;;;;;;;;;;;;;;;27.33;34.77;95867.97;5036098;28;9142;-61
2023/02/14 00:23:17;;;;;;;;;;;;;;;27.34;35.11;95861.19;5040702;28;9159;-61
2023/02/14 00:25:59;;;;;;;;;;;;;;;27.33;35.33;95867.97;5048213;28;10112;-61
2023/02/14 00:28:27;;;;;;;;;;;;;;;27.32;35.01;95866.44;5064164;28;7270;-61
2023/02/14 00:30:56;;;;;;;;;;;;;;;27.32;35.32;95865.66;5027938;28;8959;-61
2023/02/14 00:33:22;;;;;;;;;;;;;;;27.30;35.46;95871.69;5004069;28;7076;-61
2023/02/14 00:35:49;;;;;;;;;;;;;;;27.30;35.36;95868.16;5038863;28;9331;-61
2023/02/14 00:38:17;;;;;;;;;;;;;;;27.31;35.36;95866.94;5035074;28;7216;-61
2023/02/14 00:41:07;;;;;;;;;;;;;;;27.30;35.13;95866.16;5036857;28;7067;-61
2023/02/14 00:43:33;;;;;;;;;;;;;;;27.28;35.45;95868.66;5042678;28;8992;-61
2023/02/14 00:46:04;;;;;;;;;;;;;;;27.31;35.53;95869.69;5047473;28;9684;-61
2023/02/14 00:48:43;;;;;;;;;;;;;;;27.28;35.08;95865.91;5035239;28;8986;-61
2023/02/14 00:51:18;;;;;;;;;;;;;;;27.29;35.53;95872.19;5042982;28;8706;-61
2023/02/14 00:53:58;;;;;;;;;;;;;;;27.29;35.53;95866.66;5047529;28;8718;-61
2023/02/14 00:57:08;;;;;;;;;;;;;;;27.30;35.10;95877.22;5047868;28;9098;-61
2023/02/14 01:00:06;;;;;;;;;;;;;;;27.30;35.33;95868.16;5011921;28;7191;-61
2023/02/14 01:02:45;;;;;;;;;;;;;;;27.28;35.19;95871.44;4989655;28;7495;-61
2023/02/14 01:05:11;;;;;;;;;;;;;;;27.27;35.30;95869.16;4988964;28;7384;-62
2023/02/14 01:07:39;;;;;;;;;;;;;;;27.25;35.75;95866.13;4952799;28;7245;-61
2023/02/14 01:10:05;;;;;;;;;;;;;;;27.27;35.36;95880.22;4976267;28;9018;-62
2023/02/14 01:12:36;;;;;;;;;;;;;;;27.26;35.36;95873.91;4979432;28;6975;-61
2023/02/14 01:15:03;;;;;;;;;;;;;;;27.23;35.30;95869.34;4991684;28;9075;-61
2023/02/14 01:17:31;;;;;;;;;;;;;;;27.26;35.44;95871.16;4992503;28;7270;-61
2023/02/14 01:20:26;;;;;;;;;;;;;;;27.22;35.35;95870.63;4985823;28;9285;-61
2023/02/14 01:22:54;;;;;;;;;;;;;;;27.16;35.56;95872.56;4893618;29;7263;-61
2023/02/14 01:25:25;;;;;;;;;;;;;;;27.20;35.62;95870.34;4896618;29;7182;-61
2023/02/14 01:27:52;;;;;;;;;;;;;;;27.23;35.64;95874.88;4897424;29;7271;-62
2023/02/14 01:30:39;;;;;;;;;;;;;;;27.23;35.36;95872.13;4897033;29;7417;-61
2023/02/14 01:33:05;;;;;;;;;;;;;;;27.24;35.63;95864.59;4881323;29;7242;-61
2023/02/14 01:35:40;;;;;;;;;;;;;;;27.22;35.21;95861.56;4900293;29;9069;-61
2023/02/14 01:38:08;;;;;;;;;;;;;;;27.24;35.27;95862.59;4906421;28;8247;-61
2023/02/14 01:40:42;;;;;;;;;;;;;;;27.16;35.87;95855.22;4951233;28;7310;-61
2023/02/14 01:43:19;;;;;;;;;;;;;;;27.15;34.98;95857.22;4952640;28;9338;-61
2023/02/14 01:45:46;;;;;;;;;;;;;;;27.05;35.45;95853.09;4966184;28;7119;-61
2023/02/14 01:48:14;;;;;;;;;;;;;;;27.02;35.79;95854.06;4953534;28;7511;-61
2023/02/14 01:50:55;;;;;;;;;;;;;;;27.00;35.81;95853.03;4940922;28;9394;-61
2023/02/14 01:53:37;;;;;;;;;;;;;;;26.94;36.07;95847.47;4931970;28;9093;-61
2023/02/14 01:56:13;;;;;;;;;;;;;;;26.92;36.30;95845.16;4969229;28;7040;-61
2023/02/14 01:58:45;;;;;;;;;;;;;;;26.92;35.97;95845.16;4955357;28;7207;-61
2023/02/14 02:01:17;;;;;;;;;;;;;;;26.89;36.09;95845.38;5045729;28;7366;-61
2023/02/14 02:03:56;;;;;;;;;;;;;;;26.85;35.80;95833.78;5044755;28;8703;-61
2023/02/14 02:07:06;;;;;;;;;;;;;;;26.80;35.92;95838.00;5030463;28;7138;-61
2023/02/14 02:09:45;;;;;;;;;;;;;;;26.79;36.05;95847.53;4989265;28;7044;-61
2023/02/14 02:12:13;;;;;;;;;;;;;;;26.76;36.40;95848.50;4976843;28;7452;-61
2023/02/14 02:15:11;;;;;;;;;;;;;;;26.74;36.61;95848.22;4974745;28;7227;-61
2023/02/14 02:18:27;;;;;;;;;;;;;;;26.72;35.81;95836.88;4991277;28;7288;-61
2023/02/14 02:21:44;;;;;;;;;;;;;;;26.71;36.45;95840.88;4968259;28;9036;-61
2023/02/14 02:24:26;;;;;;;;;;;;;;;26.73;36.43;95837.69;4975973;28;7156;-61
2023/02/14 02:27:08;;;;;;;;;;;;;;;26.72;36.75;95831.38;4961627;28;9009;-61
2023/02/14 02:30:02;;;;;;;;;;;;;;;26.71;36.69;95832.59;4990083;28;8501;-61
2023/02/14 02:32:49;;;;;;;;;;;;;;;26.74;35.63;95828.16;4973969;28;9532;-61
2023/02/14 02:35:51;;;;;;;;;;;;;;;26.76;36.46;95831.19;4985821;28;9041;-61
2023/02/14 02:38:30;;;;;;;;;;;;;;;26.76;35.91;95831.19;4972414;28;8875;-61
2023/02/14 02:41:14;;;;;;;;;;;;;;;26.71;36.18;95816.03;4972536;28;7297;-62
2023/02/14 02:44:11;;;;;;;;;;;;;;;26.70;36.15;95827.56;4993325;28;7273;-61
2023/02/14 02:46:57;;;;;;;;;;;;;;;26.66;36.43;95818.75;5042323;28;9104;-61
2023/02/14 02:53:05;;;;;;;;;;;;;;;26.62;37.00;95821.69;4989125;28;9241;-61
2023/02/14 02:58:57;;;;;;;;;;;;;;;26.65;36.39;95808.94;4997459;28;9125;-61
2023/02/14 03:01:32;;;;;;;;;;;;;;;26.64;36.31;95812.94;4987832;28;8922;-61
2023/02/14 03:09:57;;;;;;;;;;;;;;;26.56;36.28;95784.22;4995031;28;7265;-61
2023/02/14 03:13:02;;;;;;;;;;;;;;;26.57;37.06;95794.81;4995086;28;7075;-61
2023/02/14 03:16:23;;;;;;;;;;;;;;;26.58;36.16;95798.31;4998148;28;6876;-61
2023/02/14 03:22:38;;;;;;;;;;;;;;;26.55;36.86;95811.09;5002499;28;7393;-61
2023/02/14 03:25:09;;;;;;;;;;;;;;;26.53;36.95;95807.28;4991984;28;9007;-61
2023/02/14 03:28:19;;;;;;;;;;;;;;;26.54;36.19;95817.84;4985365;28;9637;-61
2023/02/14 03:31:05;;;;;;;;;;;;;;;26.53;36.73;95815.56;5002004;28;8042;-61
2023/02/14 03:34:07;;;;;;;;;;;;;;;26.51;36.79;95815.28;4987004;28;7031;-61
2023/02/14 03:36:50;;;;;;;;;;;;;;;26.53;36.88;95816.34;4992997;28;7163;-61
2023/02/14 03:40:06;;;;;;;;;;;;;;;26.52;36.25;95822.31;5010864;28;7030;-61
2023/02/14 03:42:47;;;;;;;;;;;;;;;26.51;36.93;95820.81;4986571;28;9411;-61
2023/02/14 03:45:27;;;;;;;;;;;;;;;26.53;36.53;95826.59;4987168;28;7457;-61
2023/02/14 03:48:06;;;;;;;;;;;;;;;26.56;36.84;95822.88;4969493;28;9183;-61
2023/02/14 03:50:55;;;;;;;;;;;;;;;26.57;36.46;95816.88;4966218;28;8982;-61
2023/02/14 03:53:44;;;;;;;;;;;;;;;26.59;36.69;95817.16;4987203;28;9186;-61
2023/02/14 03:56:37;;;;;;;;;;;;;;;26.61;36.88;95819.41;4969257;28;7028;-61
2023/02/14 03:59:13;;;;;;;;;;;;;;;26.60;36.84;95817.91;4966220;28;7653;-61
2023/02/14 04:02:10;;;;;;;;;;;;;;;26.62;36.08;95821.69;4987050;28;7041;-61
2023/02/14 04:04:49;;;;;;;;;;;;;;;26.64;36.19;95819.22;4969556;28;9257;-61
2023/02/14 04:07:23;;;;;;;;;;;;;;;26.64;36.04;95821.22;4964557;28;9090;-61
2023/02/14 04:10:03;;;;;;;;;;;;;;;26.62;36.31;95816.16;4953311;28;7268;-61
2023/02/14 04:12:58;;;;;;;;;;;;;;;26.64;35.99;95819.22;4954049;28;8800;-61
2023/02/14 04:15:25;;;;;;;;;;;;;;;26.65;36.67;95815.22;4916483;29;9135;-61
2023/02/14 04:20:39;;;;;;;;;;;;;;;26.63;36.30;95817.69;4965574;28;7315;-61
2023/02/14 04:23:05;;;;;;;;;;;;;;;26.63;36.45;95808.66;4952741;28;7667;-61
2023/02/14 04:25:31;;;;;;;;;;;;;;;26.64;35.99;95815.72;4950379;28;9066;-61
2023/02/14 04:27:59;;;;;;;;;;;;;;;26.63;36.13;95814.94;4951975;28;7226;-61
2023/02/14 04:30:25;;;;;;;;;;;;;;;26.63;35.86;95823.22;4952034;28;9015;-61
2023/02/14 04:32:51;;;;;;;;;;;;;;;26.62;36.71;95816.16;4969232;28;7046;-61
2023/02/14 04:35:26;;;;;;;;;;;;;;;26.63;36.53;95822.47;4954577;28;7349;-61
2023/02/14 04:38:07;;;;;;;;;;;;;;;26.63;36.44;95817.69;4954751;28;7036;-61
2023/02/14 04:40:33;;;;;;;;;;;;;;;26.64;35.90;95812.94;4971632;28;7256;-61
2023/02/14 04:43:00;;;;;;;;;;;;;;;26.60;36.47;95812.41;4958616;28;7157;-61
2023/02/14 04:45:26;;;;;;;;;;;;;;;26.61;36.69;95817.44;4954592;28;9108;-61
2023/02/14 04:47:52;;;;;;;;;;;;;;;26.60;36.17;95807.63;4988098;28;8038;-61
2023/02/14 04:50:18;;;;;;;;;;;;;;;26.61;36.13;95803.63;4972477;28;7262;-61
2023/02/14 04:53:10;;;;;;;;;;;;;;;26.61;36.44;95808.38;5042025;28;9077;-61
2023/02/14 04:55:47;;;;;;;;;;;;;;;26.60;36.54;95807.63;5028095;28;9070;-61
2023/02/14 04:58:20;;;;;;;;;;;;;;;26.61;35.97;95802.88;5049758;28;7250;-61
2023/02/14 05:00:50;;;;;;;;;;;;;;;26.60;36.40;95801.38;5032375;28;7020;-61
2023/02/14 05:03:25;;;;;;;;;;;;;;;26.59;36.56;95799.84;5031546;28;9148;-61
2023/02/14 05:06:03;;;;;;;;;;;;;;;26.60;36.00;95795.84;5050655;28;8696;-61
2023/02/14 05:08:43;;;;;;;;;;;;;;;26.57;36.08;95803.09;5034698;28;7291;-61
2023/02/14 05:11:41;;;;;;;;;;;;;;;26.58;36.16;95795.53;5021170;28;9065;-60
2023/02/14 05:14:21;;;;;;;;;;;;;;;26.56;36.12;95809.06;5035351;28;9068;-61
2023/02/14 05:16:51;;;;;;;;;;;;;;;26.55;36.72;95802.03;5037719;28;7157;-61
2023/02/14 05:19:37;;;;;;;;;;;;;;;26.55;36.00;95804.81;5034205;28;7678;-61
2023/02/14 05:22:04;;;;;;;;;;;;;;;26.54;36.17;95801.28;5034263;28;7756;-61
2023/02/14 05:24:40;;;;;;;;;;;;;;;26.55;36.81;95793.78;5051142;28;8787;-61
2023/02/14 05:27:10;;;;;;;;;;;;;;;26.52;36.85;95809.28;5038439;28;7048;-61
2023/02/14 05:30:09;;;;;;;;;;;;;;;26.53;36.33;95807.28;5033596;28;8693;-61
2023/02/14 05:32:35;;;;;;;;;;;;;;;26.54;36.66;95808.78;4954671;28;9207;-61
2023/02/14 05:35:06;;;;;;;;;;;;;;;26.53;36.51;95815.56;4938400;28;9139;-61
2023/02/14 05:37:32;;;;;;;;;;;;;;;26.52;36.12;95808.53;4948634;28;7065;-60
2023/02/14 05:40:00;;;;;;;;;;;;;;;26.53;36.40;95818.34;4946962;28;9297;-61
2023/02/14 05:42:26;;;;;;;;;;;;;;;26.52;36.45;95816.78;4927860;28;7303;-61
2023/02/14 05:45:02;;;;;;;;;;;;;;;26.52;36.54;95819.56;4943289;28;7033;-61
2023/02/14 05:47:48;;;;;;;;;;;;;;;26.51;36.25;95826.34;4933756;28;9038;-61
2023/02/14 05:50:28;;;;;;;;;;;;;;;26.51;36.50;95829.09;4951743;28;7453;-61
2023/02/14 05:53:21;;;;;;;;;;;;;;;26.51;36.10;95832.59;4944645;28;9245;-60
2023/02/14 05:55:48;;;;;;;;;;;;;;;26.56;37.32;95823.63;4947609;28;7132;-60
2023/02/14 05:58:14;;;;;;;;;;;;;;;26.55;36.48;95835.94;4946078;28;7243;-61
2023/02/14 06:00:40;;;;;;;;;;;;;;;26.57;37.16;95832.69;4923662;28;7642;-61
2023/02/14 06:03:07;;;;;;;;;;;;;;;26.56;36.15;95831.91;4925928;28;8470;-62
2023/02/14 06:05:40;;;;;;;;;;;;;;;26.59;36.61;95827.44;4950288;28;7259;-61
2023/02/14 06:08:15;;;;;;;;;;;;;;;26.58;36.33;95828.66;4943146;28;6861;-61
2023/02/14 06:10:51;;;;;;;;;;;;;;;26.55;36.92;95824.13;5045348;28;7254;-63
2023/02/14 06:13:33;;;;;;;;;;;;;;;26.58;36.86;95823.13;5022299;28;9093;-61
2023/02/14 06:16:05;;;;;;;;;;;;;;;26.56;37.11;95823.63;5040540;28;7279;-61
2023/02/14 06:18:42;;;;;;;;;;;;;;;26.59;36.89;95824.66;5056789;28;9084;-61
2023/02/14 06:21:16;;;;;;;;;;;;;;;26.61;36.75;95828.47;5031436;28;7847;-61
2023/02/14 06:23:43;;;;;;;;;;;;;;;26.63;36.70;95825.22;5065970;28;8716;-61
2023/02/14 06:26:26;;;;;;;;;;;;;;;26.61;37.43;95824.94;5040847;28;7000;-62
2023/02/14 06:29:02;;;;;;;;;;;;;;;26.60;36.86;95821.41;5042851;28;7073;-62
2023/02/14 06:32:05;;;;;;;;;;;;;;;26.66;37.11;95833.31;5043881;28;7312;-62
2023/02/14 06:34:33;;;;;;;;;;;;;;;26.70;36.90;95830.31;4968163;28;7298;-62
2023/02/14 06:37:06;;;;;;;;;;;;;;;26.74;37.14;95822.63;4972678;28;7310;-62
2023/02/14 06:39:32;;;;;;;;;;;;;;;26.80;37.23;95831.72;4979651;28;9040;-61
2023/02/14 06:46:07;;;;;;;;;;;;;;;26.86;36.37;95838.81;4977247;28;9289;-62
2023/02/14 06:48:44;;;;;;;;;;;;;;;26.84;36.76;95854.34;4928268;29;9126;-62
2023/02/14 06:51:27;;;;;;;;;;;;;;;26.76;36.63;95844.97;4908386;29;7129;-62
2023/02/14 06:54:01;;;;;;;;;;;;;;;26.73;36.43;95857.00;4913217;29;9057;-62
2023/02/14 06:56:37;;;;;;;;;;;;;;;26.66;36.44;95844.34;4906131;29;7254;-61
2023/02/14 06:59:03;;;;;;;;;;;;;;;26.68;36.64;95843.84;4923243;29;7087;-61
2023/02/14 07:02:03;;;;;;;;;;;;;;;26.67;36.65;95853.38;4910924;29;7003;-61
2023/02/14 07:04:53;;;;;;;;;;;;;;;26.64;36.58;95846.81;4913638;29;7047;-61
2023/02/14 07:07:46;;;;;;;;;;;;;;;26.65;37.31;95853.09;4916191;29;7458;-61
2023/02/14 07:10:32;;;;;;;;;;;;;;;26.66;37.13;95854.63;4925567;28;9707;-61
2023/02/14 07:13:00;;;;;;;;;;;;;;;26.69;37.10;95859.91;4949115;28;7307;-61
2023/02/14 07:15:28;;;;;;;;;;;;;;;26.68;37.79;95860.41;4948121;28;9325;-61
2023/02/14 07:18:18;;;;;;;;;;;;;;;26.67;37.20;95858.88;4933137;28;8754;-61
2023/02/14 07:20:54;;;;;;;;;;;;;;;26.64;37.27;95860.59;4968675;28;9068;-61
2023/02/14 07:23:34;;;;;;;;;;;;;;;26.63;36.78;95852.81;4949306;28;9132;-61
2023/02/14 07:26:04;;;;;;;;;;;;;;;26.63;37.17;95855.56;5005085;28;7035;-61
2023/02/14 07:28:30;;;;;;;;;;;;;;;26.62;37.42;95859.59;5034349;28;8737;-61
2023/02/14 07:31:22;;;;;;;;;;;;;;;26.67;37.02;95850.59;5060379;28;9417;-61
2023/02/14 07:34:26;;;;;;;;;;;;;;;26.65;36.46;95848.34;5035486;28;8992;-61
2023/02/14 07:37:01;;;;;;;;;;;;;;;26.64;37.01;95846.06;5023892;28;7082;-61
2023/02/14 07:39:33;;;;;;;;;;;;;;;26.62;36.40;95843.03;5048195;28;7063;-61
2023/02/14 07:42:03;;;;;;;;;;;;;;;26.60;36.28;95845.53;5030540;28;8715;-61
2023/02/14 07:44:34;;;;;;;;;;;;;;;26.64;36.24;95846.06;5030780;28;8777;-61
2023/02/14 07:47:40;;;;;;;;;;;;;;;26.63;36.29;95844.53;5030639;28;7277;-61
2023/02/14 07:53:49;;;;;;;;;;;;;;;26.52;36.56;95845.16;5002926;28;7055;-60
2023/02/14 07:56:23;;;;;;;;;;;;;;;26.54;36.51;95841.91;4994600;28;7022;-61
2023/02/14 07:58:50;;;;;;;;;;;;;;;26.51;36.66;95837.38;4991620;28;7043;-61
2023/02/14 08:01:20;;;;;;;;;;;;;;;26.49;37.09;95831.56;4988887;28;9047;-61
2023/02/14 08:03:50;;;;;;;;;;;;;;;26.47;36.63;95828.53;4981722;28;7282;-61
2023/02/14 08:06:17;;;;;;;;;;;;;;;26.49;36.90;95821.28;4975988;28;9073;-61
2023/02/14 08:08:49;;;;;;;;;;;;;;;26.46;36.85;95819.50;4983122;28;7054;-61
2023/02/14 08:14:10;;;;;;;;;;;;;;;26.52;36.57;95828.59;5001592;28;7227;-61
2023/02/14 08:16:37;;;;;;;;;;;;;;;26.52;36.66;95822.31;4989644;28;7272;-61
2023/02/14 08:19:03;;;;;;;;;;;;;;;26.53;37.11;95823.84;5002226;28;9029;-61
2023/02/14 08:21:38;;;;;;;;;;;;;;;26.53;36.54;95829.38;4994371;28;7244;-61
2023/02/14 08:24:23;;;;;;;;;;;;;;;26.52;37.48;95833.34;4994440;28;9124;-61
2023/02/14 08:26:58;;;;;;;;;;;;;;;26.55;36.46;95826.88;5006886;28;7013;-61
2023/02/14 08:29:33;;;;;;;;;;;;;;;26.54;37.10;95820.59;4997191;28;9000;-61
2023/02/14 08:32:01;;;;;;;;;;;;;;;26.55;36.29;95824.13;5045758;28;7012;-61
2023/02/14 08:34:29;;;;;;;;;;;;;;;26.53;36.95;95821.09;5018680;28;7446;-61
2023/02/14 08:36:56;;;;;;;;;;;;;;;26.51;36.58;95818.78;5032885;28;9382;-61
2023/02/14 08:39:22;;;;;;;;;;;;;;;26.53;37.03;95813.56;5031034;28;8530;-61
2023/02/14 08:41:53;;;;;;;;;;;;;;;26.60;36.11;95823.44;5028590;28;9015;-61
2023/02/14 08:44:21;;;;;;;;;;;;;;;26.57;36.48;95813.34;5042863;28;7289;-61
2023/02/14 08:46:47;;;;;;;;;;;;;;;26.61;37.07;95819.41;5031455;28;7335;-61
2023/02/14 08:49:13;;;;;;;;;;;;;;;26.59;36.45;95814.41;5065204;28;9134;-61
2023/02/14 08:51:39;;;;;;;;;;;;;;;26.63;36.42;95806.66;5036922;28;7720;-61
2023/02/14 08:54:17;;;;;;;;;;;;;;;26.68;36.71;95811.50;5036808;28;7240;-61
2023/02/14 08:56:44;;;;;;;;;;;;;;;26.71;36.20;95809.75;5033125;28;7043;-61
2023/02/14 08:59:13;;;;;;;;;;;;;;;26.73;36.60;95812.84;5055832;28;8797;-60
2023/02/14 09:01:39;;;;;;;;;;;;;;;26.73;35.95;95810.81;5032795;28;9034;-61
2023/02/14 09:04:07;;;;;;;;;;;;;;;26.73;36.27;95810.06;5066114;28;8598;-61
2023/02/14 09:06:37;;;;;;;;;;;;;;;26.76;36.47;95809.09;5018448;28;8296;-61
2023/02/14 09:09:03;;;;;;;;;;;;;;;26.79;36.46;95808.91;5063837;28;7275;-61
2023/02/14 09:11:33;;;;;;;;;;;;;;;26.80;36.19;95813.16;5021767;28;9428;-61
2023/02/14 09:14:03;;;;;;;;;;;;;;;26.82;36.41;95809.91;5047026;28;7352;-61
2023/02/14 09:16:34;;;;;;;;;;;;;;;26.85;35.91;95812.47;5066011;28;9037;-60
2023/02/14 09:19:03;;;;;;;;;;;;;;;26.86;35.81;95807.72;5052445;28;7043;-61
2023/02/14 09:21:33;;;;;;;;;;;;;;;26.86;36.42;95802.94;5045331;28;7008;-61
2023/02/14 09:23:59;;;;;;;;;;;;;;;26.86;36.23;95807.72;5032470;28;9064;-61
2023/02/14 09:26:26;;;;;;;;;;;;;;;26.85;36.07;95804.19;5033101;28;8104;-61
2023/02/14 09:28:53;;;;;;;;;;;;;;;26.84;36.02;95805.41;5020943;28;9068;-61
2023/02/14 09:31:23;;;;;;;;;;;;;;;26.81;36.54;95802.88;5029720;28;7172;-61
2023/02/14 09:33:52;;;;;;;;;;;;;;;26.78;36.01;95801.09;5047133;28;7033;-61
2023/02/14 09:39:04;;;;;;;;;;;;;;;26.74;36.68;95798.53;5029943;28;7384;-61
2023/02/14 09:41:31;;;;;;;;;;;;;;;26.73;35.99;95794.25;5050054;28;7232;-61
2023/02/14 09:44:04;;;;;;;;;;;;;;;26.70;36.26;95794.44;5031512;28;9023;-61
2023/02/14 09:46:44;;;;;;;;;;;;;;;26.72;36.29;95786.44;5044023;28;9196;-61
2023/02/14 09:49:17;;;;;;;;;;;;;;;26.74;36.40;95786.75;5058251;28;7897;-61
2023/02/14 09:51:48;;;;;;;;;;;;;;;26.77;36.43;95789.28;5047457;28;7058;-61
2023/02/14 09:54:26;;;;;;;;;;;;;;;26.79;36.37;95783.28;5055700;28;9032;-60
2023/02/14 09:57:02;;;;;;;;;;;;;;;26.81;36.37;95781.56;5028637;28;9334;-61
2023/02/14 10:00:10;;;;;;;;;;;;;;;26.86;36.02;95780.09;5043469;28;9758;-61
2023/02/14 10:03:27;;;;;;;;;;;;;;;26.90;36.35;95780.66;4990451;28;7261;-60
2023/02/14 10:06:13;;;;;;;;;;;;;;;26.92;36.44;95778.16;4934158;28;7477;-61
2023/02/14 10:09:14;;;;;;;;;;;;;;;26.89;36.25;95784.63;4947850;28;7126;-61
2023/02/14 10:12:00;;;;;;;;;;;;;;;26.92;36.31;95773.38;4952935;28;9435;-61
2023/02/14 10:14:39;;;;;;;;;;;;;;;26.94;35.97;95774.91;4942148;28;9350;-61
2023/02/14 10:17:33;;;;;;;;;;;;;;;26.94;36.19;95774.91;4943943;28;9417;-61
2023/02/14 10:20:06;;;;;;;;;;;;;;;26.96;36.13;95773.19;4933519;28;9057;-60
2023/02/14 10:22:43;;;;;;;;;;;;;;;26.98;35.87;95767.16;4928722;29;9136;-60
2023/02/14 10:25:25;;;;;;;;;;;;;;;26.98;36.34;95765.16;4935469;28;7070;-60
2023/02/14 10:28:12;;;;;;;;;;;;;;;27.01;36.25;95769.72;4935552;28;9030;-60
2023/02/14 10:33:55;;;;;;;;;;;;;;;27.00;35.68;95772.94;4970352;28;7466;-60
2023/02/14 10:36:36;;;;;;;;;;;;;;;27.00;36.00;95759.13;4975943;28;9255;-61
2023/02/14 10:39:30;;;;;;;;;;;;;;;27.04;35.85;95763.22;4982339;28;7044;-60
2023/02/14 10:42:52;;;;;;;;;;;;;;;27.04;36.12;95765.97;5011682;28;9078;-61
2023/02/14 10:45:40;;;;;;;;;;;;;;;27.01;35.67;95758.69;4957028;28;7517;-61
2023/02/14 10:48:41;;;;;;;;;;;;;;;27.03;35.93;95758.19;4936912;28;7003;-60
2023/02/14 10:54:43;;;;;;;;;;;;;;;27.03;36.28;95749.91;4933632;29;7476;-60
2023/02/14 10:57:19;;;;;;;;;;;;;;;27.03;36.45;95747.13;4916649;29;7294;-61
2023/02/14 10:59:52;;;;;;;;;;;;;;;27.05;35.92;95745.41;4945727;28;7044;-60
2023/02/14 11:02:25;;;;;;;;;;;;;;;27.05;35.73;95739.88;4930835;29;9439;-61
2023/02/14 11:04:52;;;;;;;;;;;;;;;27.03;36.17;95738.84;4923313;29;9141;-61
2023/02/14 11:07:20;;;;;;;;;;;;;;;27.03;36.30;95734.09;4947780;28;9496;-61
2023/02/14 11:09:48;;;;;;;;;;;;;;;27.02;35.95;95735.31;4917691;29;7012;-61
2023/02/14 11:13:02;;;;;;;;;;;;;;;27.05;36.06;95734.34;4946862;28;9208;-61
2023/02/14 11:15:39;;;;;;;;;;;;;;;27.05;35.98;95728.84;4930249;29;9046;-61
2023/02/14 11:18:36;;;;;;;;;;;;;;;27.06;36.12;95727.56;4933321;29;7373;-61
2023/02/14 11:21:19;;;;;;;;;;;;;;;27.06;35.75;95721.28;4997282;28;7093;-61
2023/02/14 11:24:24;;;;;;;;;;;;;;;27.06;35.92;95722.06;5008290;28;7003;-61
2023/02/14 11:27:27;;;;;;;;;;;;;;;27.08;35.96;95707.78;4993212;28;8734;-61
2023/02/14 11:30:24;;;;;;;;;;;;;;;27.09;36.00;95714.78;5005643;28;8955;-61
2023/02/14 11:33:36;;;;;;;;;;;;;;;27.09;36.19;95707.28;4966551;28;8356;-61
2023/02/14 11:36:29;;;;;;;;;;;;;;;27.09;36.02;95707.28;4934761;28;8748;-60
2023/02/14 11:39:04;;;;;;;;;;;;;;;27.10;35.97;95708.78;4939232;28;7176;-61
2023/02/14 11:42:04;;;;;;;;;;;;;;;27.16;35.63;95697.78;4935284;28;8717;-60
2023/02/14 11:44:35;;;;;;;;;;;;;;;27.16;35.96;95693.03;4936586;29;7372;-61
2023/02/14 11:47:47;;;;;;;;;;;;;;;27.17;35.77;95689.00;4934484;29;7309;-61
2023/02/14 11:54:10;;;;;;;;;;;;;;;27.23;36.07;95681.50;4913860;29;7259;-61
2023/02/14 11:57:17;;;;;;;;;;;;;;;27.26;35.90;95682.53;4918930;29;7257;-61
2023/02/14 11:59:57;;;;;;;;;;;;;;;27.28;36.03;95677.28;4915991;29;7234;-61
2023/02/14 12:03:00;;;;;;;;;;;;;;;27.30;36.07;95686.59;4924360;29;9410;-60
2023/02/14 12:06:01;;;;;;;;;;;;;;;27.32;36.17;95675.81;4907777;29;7801;-60
2023/02/14 12:09:21;;;;;;;;;;;;;;;27.33;35.47;95666.28;4891394;29;7308;-61
2023/02/14 12:12:18;;;;;;;;;;;;;;;27.35;35.62;95661.06;5047388;28;7138;-59
2023/02/14 12:15:28;;;;;;;;;;;;;;;27.37;36.22;95657.78;5027696;28;9466;-59
2023/02/14 12:21:45;;;;;;;;;;;;;;;27.38;35.34;95662.81;5020927;28;8754;-59
2023/02/14 12:24:47;;;;;;;;;;;;;;;27.40;35.72;95662.34;5026194;28;7229;-59
2023/02/14 12:27:26;;;;;;;;;;;;;;;27.42;35.97;95651.53;5017527;28;7051;-59
2023/02/14 12:30:19;;;;;;;;;;;;;;;27.42;35.87;95649.53;5021857;28;7340;-59
2023/02/14 12:33:25;;;;;;;;;;;;;;;27.42;35.92;95637.72;5009905;28;7501;-59
2023/02/14 12:36:40;;;;;;;;;;;;;;;27.46;35.84;95641.78;4971681;28;8859;-59
2023/02/14 12:39:51;;;;;;;;;;;;;;;27.46;35.98;95639.00;4975082;28;8714;-59
2023/02/14 12:43:03;;;;;;;;;;;;;;;27.48;35.97;95628.22;4986236;28;6979;-59
2023/02/14 12:46:08;;;;;;;;;;;;;;;27.52;35.82;95639.03;4962261;28;7481;-59
2023/02/14 12:49:06;;;;;;;;;;;;;;;27.53;35.96;95627.47;4969253;28;7381;-59
2023/02/14 12:52:14;;;;;;;;;;;;;;;27.54;35.95;95623.47;4970778;28;8890;-59
2023/02/14 12:54:53;;;;;;;;;;;;;;;27.54;36.02;95622.72;4977420;28;7005;-59
2023/02/14 12:57:43;;;;;;;;;;;;;;;27.54;35.65;95617.94;4975129;28;7466;-59
2023/02/14 13:00:47;;;;;;;;;;;;;;;27.56;35.81;95612.69;4968279;28;9109;-59
2023/02/14 13:03:43;;;;;;;;;;;;;;;27.59;36.18;95620.00;4971995;28;7304;-59
2023/02/14 13:06:22;;;;;;;;;;;;;;;27.63;35.88;95615.00;4967594;28;7297;-60
2023/02/14 13:08:53;;;;;;;;;;;;;;;27.66;36.12;95606.94;4963482;28;7052;-59
2023/02/14 13:11:37;;;;;;;;;;;;;;;27.65;36.08;95595.13;5008244;28;7309;-59
2023/02/14 13:14:34;;;;;;;;;;;;;;;27.71;35.58;95600.69;5017121;28;9045;-59
2023/02/14 13:17:21;;;;;;;;;;;;;;;27.74;36.09;95594.94;5006550;28;8877;-59
2023/02/14 13:20:02;;;;;;;;;;;;;;;27.74;36.10;95591.41;5030753;28;7039;-60
2023/02/14 13:22:34;;;;;;;;;;;;;;;27.76;36.28;95591.66;5008227;28;7672;-59
2023/02/14 13:25:15;;;;;;;;;;;;;;;27.79;36.09;95598.97;4999150;28;7225;-59
2023/02/14 13:27:50;;;;;;;;;;;;;;;27.81;35.28;95590.94;5012725;28;9264;-59
2023/02/14 13:30:54;;;;;;;;;;;;;;;27.84;36.09;95589.94;5011145;28;7061;-59
2023/02/14 13:33:31;;;;;;;;;;;;;;;27.86;35.11;95595.75;4934167;28;7124;-59
2023/02/14 13:36:04;;;;;;;;;;;;;;;27.86;34.08;95588.19;4928715;28;9244;-59
2023/02/14 13:38:58;;;;;;;;;;;;;;;27.87;34.51;95588.94;4937649;28;7074;-59
2023/02/14 13:41:27;;;;;;;;;;;;;;;27.89;34.37;95592.72;4927080;28;7309;-61
2023/02/14 13:43:55;;;;;;;;;;;;;;;27.91;34.53;95583.91;4931342;29;9359;-61
2023/02/14 13:46:49;;;;;;;;;;;;;;;27.98;34.58;95594.53;4921431;28;7197;-61
2023/02/14 13:49:28;;;;;;;;;;;;;;;28.00;34.43;95589.25;4927299;28;9009;-61
2023/02/14 13:52:11;;;;;;;;;;;;;;;28.03;34.26;95591.03;4940059;28;7312;-61
2023/02/14 13:54:51;;;;;;;;;;;;;;;28.05;34.41;95583.00;4946005;28;9059;-62
2023/02/14 13:57:36;;;;;;;;;;;;;;;28.06;33.83;95578.97;4929432;29;9022;-61
2023/02/14 14:00:22;;;;;;;;;;;;;;;28.09;34.16;95580.75;4944123;28;7084;-61
2023/02/14 14:02:58;;;;;;;;;;;;;;;28.10;34.15;95573.97;4935099;28;9020;-61
2023/02/14 14:05:35;;;;;;;;;;;;;;;28.15;34.46;95579.50;4927293;28;9460;-61
2023/02/14 14:08:30;;;;;;;;;;;;;;;28.20;34.26;95575.25;4984317;28;9477;-62
2023/02/14 14:11:02;;;;;;;;;;;;;;;28.23;34.46;95565.97;5009953;28;6982;-61
2023/02/14 14:13:51;;;;;;;;;;;;;;;28.25;34.39;95580.03;4995232;28;8967;-61
2023/02/14 14:16:55;;;;;;;;;;;;;;;28.28;34.63;95573.50;4995907;28;6873;-61
2023/02/14 14:19:39;;;;;;;;;;;;;;;28.32;34.35;95579.53;4997586;28;7282;-61
2023/02/14 14:22:46;;;;;;;;;;;;;;;28.34;34.93;95572.25;5000704;28;8904;-62
2023/02/14 14:25:43;;;;;;;;;;;;;;;28.40;34.83;95563.19;4955591;28;7214;-61
2023/02/14 14:28:24;;;;;;;;;;;;;;;28.45;34.87;95565.22;4966097;28;7026;-61
2023/02/14 14:31:01;;;;;;;;;;;;;;;28.49;34.92;95562.97;4955427;28;7264;-61
2023/02/14 14:33:33;;;;;;;;;;;;;;;28.51;34.97;95558.44;4954737;28;7696;-61
2023/02/14 14:36:02;;;;;;;;;;;;;;;28.53;34.85;95560.69;4952158;28;8967;-61
2023/02/14 14:38:30;;;;;;;;;;;;;;;28.56;34.89;95549.38;4956940;28;8810;-61
2023/02/14 14:41:01;;;;;;;;;;;;;;;28.59;34.67;95550.41;4955965;28;9055;-61
2023/02/14 14:43:38;;;;;;;;;;;;;;;28.61;34.63;95554.19;4966043;28;7365;-62
2023/02/14 14:46:22;;;;;;;;;;;;;;;28.63;34.97;95559.22;4968375;28;7128;-61
2023/02/14 14:49:04;;;;;;;;;;;;;;;28.66;34.75;95561.75;4970556;28;7329;-62
2023/02/14 14:52:16;;;;;;;;;;;;;;;28.69;34.74;95557.19;4947566;28;9091;-61
2023/02/14 14:54:47;;;;;;;;;;;;;;;28.72;34.89;95553.44;4956650;28;7258;-61
2023/02/14 14:57:39;;;;;;;;;;;;;;;28.74;34.80;95559.97;4998803;28;7006;-61